Terminal Aerodrome Forecast
Issued by NWS Charleston, WV

Current Version | Previous Version | Text Only | Print | Product List | Glossary Off
Versions: 1 2 3 4 5 6 7 8 9 10 11 12 13 14 15 16 17 18 19 20 21 22 23 24 25 26 27 28

006
FTUS41 KRLX 250217 AAA
TAFCRW
TAF AMD
KCRW 250217Z 2502/2524 00000KT 6SM -RA BR SCT003 BKN025
     FM250800 20009G18KT 5SM +SHRA OVC050
     FM251300 20009KT 3SM +SHRA OVC040
     FM251500 21009G16KT 5SM -SHRA BR OVC025
     FM251600 23009G17KT P6SM OVC040=

USA.gov is the U.S. government's official web portal to all federal, state and local government web resources and services.